createdAt,value
2022-08-26T00:03:39.318Z,4.50
2022-08-26T00:08:42.463Z,4.10
2022-08-26T00:13:49.666Z,4.00
2022-08-26T00:18:53.199Z,4.00
2022-08-26T00:23:56.057Z,4.30
2022-08-26T00:28:58.931Z,5.00
2022-08-26T00:34:03.200Z,4.40
2022-08-26T00:39:08.541Z,5.70
2022-08-26T00:44:11.522Z,4.90
2022-08-26T00:49:22.279Z,5.60
2022-08-26T00:54:26.923Z,5.40
2022-08-26T00:59:33.054Z,5.30
2022-08-26T01:04:36.715Z,4.80
2022-08-26T01:09:39.730Z,4.90
2022-08-26T01:14:42.723Z,4.50
2022-08-26T01:19:53.444Z,4.60
2022-08-26T01:24:59.272Z,4.50
2022-08-26T01:30:02.253Z,5.00
2022-08-26T01:35:07.591Z,4.50
2022-08-26T01:40:14.923Z,4.60
2022-08-26T01:45:25.528Z,4.90
2022-08-26T01:50:33.341Z,4.60
2022-08-26T01:55:38.212Z,4.90
2022-08-26T02:00:44.095Z,4.80
2022-08-26T02:06:09.309Z,4.70
2022-08-26T02:11:13.311Z,4.30
2022-08-26T02:16:18.451Z,4.60
2022-08-26T02:21:21.908Z,4.70
2022-08-26T02:26:27.706Z,5.20
2022-08-26T02:31:30.492Z,4.90
2022-08-26T02:36:33.518Z,4.70
2022-08-26T02:41:45.084Z,5.00
2022-08-26T02:46:48.345Z,5.10
2022-08-26T02:51:51.863Z,4.90
2022-08-26T02:56:56.162Z,5.20
2022-08-26T03:01:58.931Z,4.90
2022-08-26T03:07:01.703Z,4.80
2022-08-26T03:12:04.613Z,4.80
2022-08-26T03:17:07.788Z,5.10
2022-08-26T03:22:14.487Z,4.50
2022-08-26T03:27:17.754Z,5.00
2022-08-26T03:32:20.755Z,4.70
2022-08-26T03:37:25.300Z,4.40
2022-08-26T03:42:29.397Z,4.90
2022-08-26T03:47:32.643Z,4.90
2022-08-26T03:52:35.635Z,5.30
2022-08-26T03:57:38.433Z,5.10
2022-08-26T04:02:45.948Z,4.70
2022-08-26T04:07:48.861Z,4.80
2022-08-26T04:12:53.392Z,5.00
2022-08-26T04:17:57.232Z,4.90
2022-08-26T04:23:00.523Z,5.10
2022-08-26T04:28:03.780Z,5.20
2022-08-26T04:33:12.647Z,5.90
2022-08-26T04:38:16.322Z,5.40
2022-08-26T04:43:19.037Z,5.60
2022-08-26T04:48:21.791Z,5.40
2022-08-26T04:53:24.646Z,5.30
2022-08-26T04:58:27.659Z,5.70
2022-08-26T05:03:31.177Z,5.60
2022-08-26T05:08:34.155Z,4.90
2022-08-26T05:13:39.106Z,5.10
2022-08-26T05:18:43.570Z,5.50
2022-08-26T05:23:49.461Z,5.30
2022-08-26T05:28:54.579Z,5.00
2022-08-26T05:33:58.429Z,5.00
2022-08-26T05:39:01.755Z,4.70
2022-08-26T05:44:07.967Z,4.60
2022-08-26T05:49:13.373Z,4.70
2022-08-26T05:54:21.668Z,4.40
2022-08-26T05:59:25.329Z,4.80
2022-08-26T06:04:29.971Z,4.90
2022-08-26T06:09:36.243Z,4.80
2022-08-26T06:14:41.628Z,4.90
2022-08-26T06:19:44.563Z,5.30
2022-08-26T06:25:07.308Z,4.70
2022-08-26T06:30:12.316Z,4.40
2022-08-26T06:35:15.540Z,4.70
2022-08-26T06:40:20.990Z,4.50
2022-08-26T06:45:24.366Z,4.40
2022-08-26T06:50:27.128Z,5.00
2022-08-26T06:55:31.276Z,4.70
2022-08-26T07:00:34.163Z,5.00
2022-08-26T07:05:36.953Z,4.80
2022-08-26T07:10:39.734Z,4.40
2022-08-26T07:15:42.804Z,4.30
2022-08-26T07:20:45.751Z,4.20
2022-08-26T07:25:48.604Z,4.30
2022-08-26T07:30:51.888Z,4.90
2022-08-26T07:35:56.074Z,4.20
2022-08-26T07:40:58.888Z,4.50
2022-08-26T07:46:02.053Z,4.60
2022-08-26T07:51:04.993Z,4.30
2022-08-26T07:56:07.761Z,4.30
2022-08-26T08:01:11.756Z,4.60
2022-08-26T08:06:17.975Z,4.70
2022-08-26T08:11:21.226Z,4.70
2022-08-26T08:16:26.025Z,4.50
2022-08-26T08:21:30.412Z,4.60
2022-08-26T08:27:38.826Z,4.70
2022-08-26T08:32:43.615Z,4.70
2022-08-26T08:37:46.788Z,4.70
2022-08-26T08:43:05.278Z,4.90
2022-08-26T08:48:27.599Z,5.40
2022-08-26T08:53:37.524Z,4.90
2022-08-26T08:58:59.506Z,4.30
2022-08-26T09:04:20.708Z,5.10
2022-08-26T09:09:37.535Z,4.60
2022-08-26T09:14:40.482Z,4.40
2022-08-26T09:19:48.441Z,4.00
2022-08-26T09:24:52.384Z,4.00
2022-08-26T09:29:59.043Z,4.00
2022-08-26T09:35:09.950Z,3.70
2022-08-26T09:40:12.991Z,4.20
2022-08-26T09:45:17.039Z,4.10
2022-08-26T09:50:29.346Z,3.70
2022-08-26T09:55:38.290Z,3.60
2022-08-26T10:00:57.309Z,3.70
2022-08-26T10:06:23.355Z,3.40
2022-08-26T10:11:47.269Z,3.50
2022-08-26T10:17:14.644Z,3.70
2022-08-26T10:22:29.557Z,4.20
2022-08-26T10:28:05.238Z,3.80
2022-08-26T10:33:10.990Z,4.00
2022-08-26T10:38:17.801Z,4.20
2022-08-26T10:43:30.199Z,3.70
2022-08-26T10:49:06.725Z,3.80
2022-08-26T10:54:19.832Z,3.60
2022-08-26T10:59:51.847Z,4.10
2022-08-26T11:05:04.368Z,3.50
2022-08-26T11:10:16.250Z,3.90
2022-08-26T11:15:24.883Z,3.80
2022-08-26T11:20:27.954Z,3.70
2022-08-26T11:25:31.420Z,3.70
2022-08-26T11:30:41.033Z,3.90
2022-08-26T11:35:43.769Z,4.00
2022-08-26T11:41:06.477Z,3.60
2022-08-26T11:46:12.009Z,4.20
2022-08-26T12:01:39.209Z,4.00
2022-08-26T12:06:51.113Z,4.20
2022-08-26T12:11:58.131Z,4.00
2022-08-26T12:17:27.321Z,4.10
2022-08-26T12:22:37.033Z,3.80
2022-08-26T12:27:44.574Z,3.80
2022-08-26T12:32:57.539Z,3.60
2022-08-26T12:38:02.017Z,3.60
2022-08-26T12:43:07.052Z,3.40
2022-08-26T12:48:27.469Z,3.90
2022-08-26T12:53:35.116Z,3.70
2022-08-26T12:58:38.719Z,3.70
2022-08-26T13:03:45.339Z,4.10
2022-08-26T13:08:52.934Z,3.80
2022-08-26T13:14:10.525Z,4.00
2022-08-26T13:19:19.406Z,3.40
2022-08-26T13:24:37.138Z,4.00
2022-08-26T13:29:40.074Z,4.00
2022-08-26T13:34:48.193Z,3.90
2022-08-26T13:39:54.449Z,4.10
2022-08-26T13:44:58.224Z,3.70
2022-08-26T13:50:01.536Z,3.90
2022-08-26T13:55:04.965Z,3.40
2022-08-26T14:00:11.113Z,4.20
2022-08-26T14:05:14.018Z,3.60
2022-08-26T14:10:16.926Z,4.00
2022-08-26T14:15:19.720Z,4.00
2022-08-26T14:20:27.326Z,4.30
2022-08-26T14:25:30.462Z,4.00
2022-08-26T14:30:33.383Z,4.40
2022-08-26T14:35:36.132Z,3.90
2022-08-26T14:40:40.309Z,4.00
2022-08-26T14:45:44.164Z,4.10
2022-08-26T14:50:46.908Z,3.90
2022-08-26T14:55:50.606Z,4.10
2022-08-26T15:00:53.324Z,3.70
2022-08-26T15:05:56.759Z,4.20
2022-08-26T15:10:59.642Z,4.30
2022-08-26T15:16:02.764Z,4.20
2022-08-26T15:21:06.120Z,4.00
2022-08-26T15:26:10.353Z,4.10
2022-08-26T15:31:13.895Z,4.30
2022-08-26T15:36:16.754Z,4.70
2022-08-26T15:41:19.560Z,5.00
2022-08-26T15:46:22.398Z,4.60
2022-08-26T15:51:34.236Z,4.20
2022-08-26T15:56:38.582Z,4.60
2022-08-26T16:01:41.424Z,4.40
2022-08-26T16:06:46.992Z,4.30
2022-08-26T16:11:49.934Z,4.20
2022-08-26T16:16:53.442Z,4.30
2022-08-26T16:21:56.220Z,4.10
2022-08-26T16:26:59.427Z,4.10
2022-08-26T16:32:08.607Z,3.90
2022-08-26T16:37:11.772Z,4.10
2022-08-26T16:42:15.327Z,4.40
2022-08-26T16:47:18.534Z,3.90
2022-08-26T16:52:21.380Z,4.30
2022-08-26T16:57:27.640Z,3.90
2022-08-26T17:02:30.504Z,4.10
2022-08-26T17:07:35.572Z,4.30
2022-08-26T17:12:39.196Z,4.00
2022-08-26T17:17:42.019Z,4.20
2022-08-26T17:22:48.210Z,5.00
2022-08-26T17:27:51.469Z,4.40
2022-08-26T17:32:54.458Z,4.60
2022-08-26T17:37:57.221Z,4.30
2022-08-26T17:43:00.116Z,4.40
2022-08-26T17:48:03.450Z,4.40
2022-08-26T17:53:06.489Z,4.90
2022-08-26T17:58:09.440Z,4.70
2022-08-26T18:03:13.073Z,5.30
2022-08-26T18:08:15.867Z,5.00
2022-08-26T18:13:18.993Z,5.50
2022-08-26T18:18:21.741Z,5.00
2022-08-26T18:23:24.732Z,5.00
2022-08-26T18:28:29.604Z,5.10
2022-08-26T18:33:35.476Z,5.40
2022-08-26T18:38:38.209Z,5.40
2022-08-26T18:43:45.576Z,5.60
2022-08-26T18:48:50.779Z,5.70
2022-08-26T18:53:54.120Z,6.20
2022-08-26T18:58:59.028Z,6.20
2022-08-26T19:04:03.622Z,5.80
2022-08-26T19:09:08.256Z,5.80
2022-08-26T19:14:14.199Z,6.00
2022-08-26T19:19:17.117Z,6.90
2022-08-26T19:24:20.549Z,6.40
2022-08-26T19:29:24.863Z,6.70
2022-08-26T19:34:28.061Z,7.40
2022-08-26T19:39:30.897Z,6.90
2022-08-26T19:44:52.659Z,6.90
2022-08-26T19:49:55.811Z,7.00
2022-08-26T19:54:59.036Z,6.60
2022-08-26T20:00:02.589Z,7.10
2022-08-26T20:05:06.547Z,6.30
2022-08-26T20:10:15.110Z,6.80
2022-08-26T20:15:19.505Z,8.20
2022-08-26T20:20:40.867Z,7.60
2022-08-26T20:25:43.644Z,7.30
2022-08-26T20:30:46.459Z,8.70
2022-08-26T20:35:49.256Z,8.90
2022-08-26T20:40:51.987Z,8.10
2022-08-26T20:45:59.168Z,7.80
2022-08-26T20:51:02.081Z,8.00
2022-08-26T20:56:08.298Z,7.30
2022-08-26T21:01:22.499Z,7.50
2022-08-26T21:06:25.333Z,7.70
2022-08-26T21:11:29.200Z,7.80
2022-08-26T21:16:32.280Z,7.60
2022-08-26T21:21:35.697Z,8.00
2022-08-26T21:26:38.675Z,8.80
2022-08-26T21:32:16.729Z,8.40
2022-08-26T21:37:19.612Z,8.70
2022-08-26T21:42:25.371Z,8.30
2022-08-26T21:47:28.760Z,9.60
2022-08-26T21:52:31.525Z,8.40
2022-08-26T21:57:36.485Z,9.40
2022-08-26T22:34:45.671Z,7.80
2022-08-26T22:39:48.412Z,7.80
2022-08-26T22:46:29.134Z,7.70
2022-08-26T22:51:32.110Z,7.90
2022-08-26T22:57:08.491Z,8.30
2022-08-26T23:02:12.090Z,7.30
2022-08-26T23:07:19.150Z,8.10
2022-08-26T23:12:22.145Z,8.60
2022-08-26T23:17:24.974Z,8.50
2022-08-26T23:22:28.928Z,8.50
2022-08-26T23:27:31.719Z,8.30
2022-08-26T23:32:34.795Z,8.30
2022-08-26T23:37:41.609Z,8.40
2022-08-26T23:42:44.509Z,7.70
2022-08-26T23:47:47.484Z,8.30
2022-08-26T23:53:05.781Z,8.30
2022-08-26T23:58:08.739Z,8.00
